Time,TemperatureF,DewpointF,PressureIn,WindDirection,WindDirectionDegrees,WindSpeedMPH,WindSpeedGustMPH,Humidity,HourlyPrecipIn,Conditions,Clouds,dailyrainin,SoftwareType,DateUTC
2013-10-14 00:00:00,40.6,31.6,30.17,West,263,0.0,0.0,70,0.00,,,0.00,Wunderground v.1.15,2013-10-14 07:00:00,
2013-10-14 00:05:00,40.2,31.5,30.17,West,262,0.0,0.0,71,0.00,,,0.00,Wunderground v.1.15,2013-10-14 07:05:00,
2013-10-14 00:11:00,39.9,31.9,30.17,WSW,252,0.0,0.0,73,0.00,,,0.00,Wunderground v.1.15,2013-10-14 07:11:00,
2013-10-14 00:17:00,39.9,31.9,30.17,WSW,250,0.0,0.0,73,0.00,,,0.00,Wunderground v.1.15,2013-10-14 07:17:00,
2013-10-14 00:23:00,39.8,32.2,30.17,WSW,253,0.0,0.0,74,0.00,,,0.00,Wunderground v.1.15,2013-10-14 07:23:00,
2013-10-14 00:28:00,40.1,32.1,30.18,West,264,0.0,0.0,73,0.00,,,0.00,Wunderground v.1.15,2013-10-14 07:28:00,
2013-10-14 00:34:00,39.9,31.6,30.18,West,268,0.0,0.0,72,0.00,,,0.00,Wunderground v.1.15,2013-10-14 07:34:00,
2013-10-14 00:40:00,39.2,31.3,30.18,West,266,0.0,0.0,73,0.00,,,0.00,Wunderground v.1.15,2013-10-14 07:40:00,
2013-10-14 00:46:00,38.4,30.2,30.18,WSW,258,0.0,0.0,72,0.00,,,0.00,Wunderground v.1.15,2013-10-14 07:46:00,
2013-10-14 00:52:00,37.3,29.8,30.18,WSW,258,0.0,1.0,74,0.00,,,0.00,Wunderground v.1.15,2013-10-14 07:52:00,
2013-10-14 00:58:00,37.3,30.4,30.19,SW,234,1.0,2.0,76,0.00,,,0.00,Wunderground v.1.15,2013-10-14 07:58:00,
2013-10-14 01:03:00,37.3,30.7,30.19,WSW,251,1.0,3.0,77,0.00,,,0.00,Wunderground v.1.15,2013-10-14 08:03:00,
2013-10-14 01:09:00,37.6,30.7,30.19,West,261,1.0,3.0,76,0.00,,,0.00,Wunderground v.1.15,2013-10-14 08:09:00,
2013-10-14 01:15:00,38.0,31.1,30.19,West,268,0.0,1.0,76,0.00,,,0.00,Wunderground v.1.15,2013-10-14 08:15:00,
2013-10-14 01:21:00,38.5,30.9,30.19,WNW,284,0.0,0.0,74,0.00,,,0.00,Wunderground v.1.15,2013-10-14 08:21:00,
2013-10-14 01:27:00,38.4,30.5,30.19,WNW,299,0.0,0.0,73,0.00,,,0.00,Wunderground v.1.15,2013-10-14 08:27:00,
2013-10-14 01:33:00,38.2,30.3,30.19,West,275,0.0,0.0,73,0.00,,,0.00,Wunderground v.1.15,2013-10-14 08:33:00,
2013-10-14 01:39:00,37.7,30.2,30.19,WSW,252,0.0,0.0,74,0.00,,,0.00,Wunderground v.1.15,2013-10-14 08:39:00,
2013-10-14 01:45:00,37.3,29.4,30.19,WSW,253,0.0,0.0,73,0.00,,,0.00,Wunderground v.1.15,2013-10-14 08:45:00,
2013-10-14 01:51:00,36.6,29.7,30.20,West,261,0.0,0.0,76,0.00,,,0.00,Wunderground v.1.15,2013-10-14 08:51:00,
2013-10-14 01:57:00,36.9,30.0,30.20,West,280,0.0,0.0,76,0.00,,,0.00,Wunderground v.1.15,2013-10-14 08:57:00,
2013-10-14 02:03:00,36.8,29.9,30.20,West,278,0.0,0.0,76,0.00,,,0.00,Wunderground v.1.15,2013-10-14 09:03:00,
2013-10-14 02:09:00,36.9,30.0,30.20,WNW,283,0.0,0.0,76,0.00,,,0.00,Wunderground v.1.15,2013-10-14 09:09:00,
2013-10-14 02:15:00,37.3,30.1,30.20,WNW,285,0.0,0.0,75,0.00,,,0.00,Wunderground v.1.15,2013-10-14 09:15:00,
2013-10-14 02:21:00,37.4,30.2,30.20,West,278,0.0,0.0,75,0.00,,,0.00,Wunderground v.1.15,2013-10-14 09:21:00,
2013-10-14 02:27:00,37.7,30.8,30.20,WNW,283,0.0,0.0,76,0.00,,,0.00,Wunderground v.1.15,2013-10-14 09:27:00,
2013-10-14 02:33:00,37.9,30.7,30.20,WNW,289,0.0,0.0,75,0.00,,,0.00,Wunderground v.1.15,2013-10-14 09:33:00,
2013-10-14 02:39:00,38.0,30.8,30.20,West,262,0.0,0.0,75,0.00,,,0.00,Wunderground v.1.15,2013-10-14 09:39:00,
2013-10-14 02:45:00,38.0,30.8,30.20,West,262,0.0,0.0,75,0.00,,,0.00,Wunderground v.1.15,2013-10-14 09:45:00,
2013-10-14 02:51:00,38.3,31.4,30.20,West,264,0.0,0.0,76,0.00,,,0.00,Wunderground v.1.15,2013-10-14 09:51:00,
2013-10-14 02:57:00,38.5,31.6,30.20,West,263,0.0,0.0,76,0.00,,,0.00,Wunderground v.1.15,2013-10-14 09:57:00,
2013-10-14 03:03:00,38.8,31.9,30.20,WNW,285,0.0,0.0,76,0.00,,,0.00,Wunderground v.1.15,2013-10-14 10:03:00,
2013-10-14 03:09:00,39.2,32.3,30.20,WNW,282,0.0,0.0,76,0.00,,,0.00,Wunderground v.1.15,2013-10-14 10:09:00,
2013-10-14 03:15:00,39.5,32.2,30.20,West,270,0.0,0.0,75,0.00,,,0.00,Wunderground v.1.15,2013-10-14 10:15:00,
2013-10-14 03:21:00,39.7,32.1,30.20,WSW,255,0.0,0.0,74,0.00,,,0.00,Wunderground v.1.15,2013-10-14 10:21:00,
2013-10-14 03:27:00,39.9,32.3,30.20,WSW,258,0.0,0.0,74,0.00,,,0.00,Wunderground v.1.15,2013-10-14 10:27:00,
2013-10-14 03:33:00,40.0,32.4,30.20,West,271,0.0,0.0,74,0.00,,,0.00,Wunderground v.1.15,2013-10-14 10:33:00,
2013-10-14 03:39:00,40.0,32.4,30.20,WNW,290,0.0,0.0,74,0.00,,,0.00,Wunderground v.1.15,2013-10-14 10:39:00,
2013-10-14 03:45:00,40.1,32.1,30.20,NW,307,0.0,0.0,73,0.00,,,0.00,Wunderground v.1.15,2013-10-14 10:45:00,
2013-10-14 03:51:00,40.1,32.1,30.20,NW,309,0.0,0.0,73,0.00,,,0.00,Wunderground v.1.15,2013-10-14 10:51:00,
2013-10-14 03:57:00,40.1,32.1,30.20,WNW,283,0.0,0.0,73,0.00,,,0.00,Wunderground v.1.15,2013-10-14 10:57:00,
2013-10-14 04:03:00,40.0,32.0,30.20,West,281,0.0,0.0,73,0.00,,,0.00,Wunderground v.1.15,2013-10-14 11:03:00,
2013-10-14 04:09:00,39.7,31.4,30.20,WSW,242,0.0,0.0,72,0.00,,,0.00,Wunderground v.1.15,2013-10-14 11:09:00,
2013-10-14 04:15:00,39.3,31.4,30.20,WSW,254,0.0,0.0,73,0.00,,,0.00,Wunderground v.1.15,2013-10-14 11:15:00,
2013-10-14 04:21:00,39.1,31.5,30.21,WSW,258,0.0,0.0,74,0.00,,,0.00,Wunderground v.1.15,2013-10-14 11:21:00,
2013-10-14 04:27:00,38.8,30.9,30.20,West,260,0.0,0.0,73,0.00,,,0.00,Wunderground v.1.15,2013-10-14 11:27:00,
2013-10-14 04:33:00,38.4,30.8,30.21,West,264,0.0,0.0,74,0.00,,,0.00,Wunderground v.1.15,2013-10-14 11:33:00,
2013-10-14 04:39:00,39.3,31.4,30.21,West,264,0.0,0.0,73,0.00,,,0.00,Wunderground v.1.15,2013-10-14 11:39:00,
2013-10-14 04:44:00,39.3,31.4,30.21,West,264,0.0,0.0,73,0.00,,,0.00,Wunderground v.1.15,2013-10-14 11:44:00,
2013-10-14 04:49:00,-999.9,-99.9,30.21,North,32767,-999.0,0.0,255,-99.99,,,0.00,Wunderground v.1.15,2013-10-14 11:49:00,
2013-10-14 04:55:00,-999.9,-99.9,30.21,North,32767,-999.0,0.0,255,-99.99,,,0.00,Wunderground v.1.15,2013-10-14 11:55:00,
2013-10-14 05:00:00,-999.9,-99.9,30.21,North,32767,-999.0,0.0,255,-99.99,,,0.00,Wunderground v.1.15,2013-10-14 12:00:00,
2013-10-14 05:06:00,-999.9,-99.9,30.21,North,32767,-999.0,0.0,255,-99.99,,,0.00,Wunderground v.1.15,2013-10-14 12:06:00,
2013-10-14 05:12:00,-999.9,-99.9,30.21,North,32767,-999.0,0.0,255,-99.99,,,0.00,Wunderground v.1.15,2013-10-14 12:12:00,
2013-10-14 05:17:00,-999.9,-99.9,30.21,North,32767,-999.0,0.0,255,-99.99,,,0.00,Wunderground v.1.15,2013-10-14 12:17:00,
2013-10-14 05:23:00,-999.9,-99.9,30.21,North,32767,-999.0,0.0,255,-99.99,,,0.00,Wunderground v.1.15,2013-10-14 12:23:00,
2013-10-14 05:29:00,-999.9,-99.9,30.21,North,32767,-999.0,0.0,255,-99.99,,,0.00,Wunderground v.1.15,2013-10-14 12:29:00,
2013-10-14 05:34:00,-999.9,-99.9,30.21,North,32767,-999.0,0.0,255,-99.99,,,0.00,Wunderground v.1.15,2013-10-14 12:34:00,
2013-10-14 05:40:00,-999.9,-99.9,30.21,North,32767,-999.0,0.0,255,-99.99,,,0.00,Wunderground v.1.15,2013-10-14 12:40:00,
2013-10-14 05:46:00,-999.9,-99.9,30.21,North,32767,-999.0,0.0,255,-99.99,,,0.00,Wunderground v.1.15,2013-10-14 12:46:00,
2013-10-14 05:52:00,-999.9,-99.9,30.21,North,32767,-999.0,0.0,255,-99.99,,,0.00,Wunderground v.1.15,2013-10-14 12:52:00,
2013-10-14 05:58:00,-999.9,-99.9,30.21,North,32767,-999.0,0.0,255,-99.99,,,0.00,Wunderground v.1.15,2013-10-14 12:58:00,
2013-10-14 06:03:00,-999.9,-99.9,30.21,North,32767,-999.0,0.0,255,-99.99,,,0.00,Wunderground v.1.15,2013-10-14 13:03:00,
2013-10-14 06:09:00,-999.9,-99.9,30.21,North,32767,-999.0,0.0,255,-99.99,,,0.00,Wunderground v.1.15,2013-10-14 13:09:00,
2013-10-14 06:15:00,-999.9,-99.9,30.22,North,32767,-999.0,0.0,255,-99.99,,,0.00,Wunderground v.1.15,2013-10-14 13:15:00,
2013-10-14 06:20:00,-999.9,-99.9,30.22,North,32767,-999.0,0.0,255,-99.99,,,0.00,Wunderground v.1.15,2013-10-14 13:20:00,
2013-10-14 06:26:00,-999.9,-99.9,30.22,North,32767,-999.0,0.0,255,-99.99,,,0.00,Wunderground v.1.15,2013-10-14 13:26:00,
2013-10-14 06:31:00,-999.9,-99.9,30.22,North,32767,-999.0,0.0,255,-99.99,,,0.00,Wunderground v.1.15,2013-10-14 13:31:00,
2013-10-14 06:36:00,-999.9,-99.9,30.22,North,32767,-999.0,0.0,255,-99.99,,,0.00,Wunderground v.1.15,2013-10-14 13:36:00,
2013-10-14 06:43:00,-999.9,-99.9,30.22,North,32767,-999.0,0.0,255,-99.99,,,0.00,Wunderground v.1.15,2013-10-14 13:43:00,
2013-10-14 06:48:00,-999.9,-99.9,30.22,North,32767,-999.0,0.0,255,-99.99,,,0.00,Wunderground v.1.15,2013-10-14 13:48:00,
2013-10-14 06:54:00,-999.9,-99.9,30.22,North,32767,-999.0,0.0,255,-99.99,,,0.00,Wunderground v.1.15,2013-10-14 13:54:00,
2013-10-14 07:00:00,-999.9,-99.9,30.22,North,32767,-999.0,0.0,255,-99.99,,,0.00,Wunderground v.1.15,2013-10-14 14:00:00,
2013-10-14 07:06:00,-999.9,-99.9,30.22,North,32767,-999.0,0.0,255,-99.99,,,0.00,Wunderground v.1.15,2013-10-14 14:06:00,
2013-10-14 07:12:00,-999.9,-99.9,30.22,North,32767,-999.0,0.0,255,-99.99,,,0.00,Wunderground v.1.15,2013-10-14 14:12:00,
2013-10-14 07:18:00,-999.9,-99.9,30.22,North,32767,-999.0,0.0,255,-99.99,,,0.00,Wunderground v.1.15,2013-10-14 14:18:00,
2013-10-14 07:23:00,-999.9,-99.9,30.22,North,32767,-999.0,0.0,255,-99.99,,,0.00,Wunderground v.1.15,2013-10-14 14:23:00,
2013-10-14 07:29:00,-999.9,-99.9,30.22,North,32767,-999.0,0.0,255,-99.99,,,0.00,Wunderground v.1.15,2013-10-14 14:29:00,
2013-10-14 07:34:00,-999.9,-99.9,30.22,North,32767,-999.0,0.0,255,-99.99,,,0.00,Wunderground v.1.15,2013-10-14 14:34:00,
2013-10-14 07:40:00,33.8,28.3,30.23,West,260,0.0,0.0,80,0.00,,,0.00,Wunderground v.1.15,2013-10-14 14:40:00,
2013-10-14 07:45:00,34.3,29.1,30.23,West,263,0.0,0.0,81,0.00,,,0.00,Wunderground v.1.15,2013-10-14 14:45:00,
2013-10-14 07:51:00,35.0,29.5,30.23,West,262,0.0,0.0,80,0.00,,,0.00,Wunderground v.1.15,2013-10-14 14:51:00,
2013-10-14 07:57:00,35.2,29.3,30.24,West,259,0.0,0.0,79,0.00,,,0.00,Wunderground v.1.15,2013-10-14 14:57:00,
2013-10-14 08:03:00,35.9,30.0,30.24,West,271,0.0,0.0,79,0.00,,,0.00,Wunderground v.1.15,2013-10-14 15:03:00,
2013-10-14 08:09:00,36.8,30.3,30.25,West,261,0.0,0.0,77,0.00,,,0.00,Wunderground v.1.15,2013-10-14 15:09:00,
2013-10-14 08:15:00,37.5,30.6,30.25,WSW,253,0.0,0.0,76,0.00,,,0.00,Wunderground v.1.15,2013-10-14 15:15:00,
2013-10-14 08:21:00,38.1,30.5,30.25,West,268,0.0,0.0,74,0.00,,,0.00,Wunderground v.1.15,2013-10-14 15:21:00,
2013-10-14 08:27:00,38.8,30.5,30.26,WNW,283,0.0,0.0,72,0.00,,,0.00,Wunderground v.1.15,2013-10-14 15:27:00,
2013-10-14 08:33:00,39.6,31.0,30.26,WNW,284,0.0,0.0,71,0.00,,,0.00,Wunderground v.1.15,2013-10-14 15:33:00,
2013-10-14 08:39:00,40.2,30.8,30.26,West,270,0.0,0.0,69,0.00,,,0.00,Wunderground v.1.15,2013-10-14 15:39:00,
2013-10-14 08:44:00,40.6,31.2,30.27,West,266,0.0,0.0,69,0.00,,,0.00,Wunderground v.1.15,2013-10-14 15:44:00,
2013-10-14 08:50:00,41.0,31.2,30.27,WSW,256,0.0,0.0,68,0.00,,,0.00,Wunderground v.1.15,2013-10-14 15:50:00,
2013-10-14 08:56:00,41.6,31.1,30.27,West,274,0.0,0.0,66,0.00,,,0.00,Wunderground v.1.15,2013-10-14 15:56:00,
2013-10-14 09:02:00,42.4,31.5,30.28,West,266,0.0,0.0,65,0.00,,,0.00,Wunderground v.1.15,2013-10-14 16:02:00,
2013-10-14 09:07:00,43.1,31.7,30.28,West,281,0.0,0.0,64,0.00,,,0.00,Wunderground v.1.15,2013-10-14 16:07:00,
2013-10-14 09:12:00,43.4,31.6,30.28,WNW,288,0.0,0.0,63,0.00,,,0.00,Wunderground v.1.15,2013-10-14 16:12:00,
2013-10-14 09:18:00,44.1,31.9,30.28,West,279,0.0,0.0,62,0.00,,,0.00,Wunderground v.1.15,2013-10-14 16:18:00,
2013-10-14 09:24:00,44.9,31.4,30.28,NW,312,0.0,0.0,59,0.00,,,0.00,Wunderground v.1.15,2013-10-14 16:24:00,
2013-10-14 09:30:00,45.3,31.4,30.29,West,269,0.0,0.0,58,0.00,,,0.00,Wunderground v.1.15,2013-10-14 16:30:00,
2013-10-14 09:36:00,45.8,31.9,30.28,NW,308,0.0,0.0,58,0.00,,,0.00,Wunderground v.1.15,2013-10-14 16:36:00,
2013-10-14 09:42:00,46.0,31.6,30.29,NW,323,0.0,0.0,57,0.00,,,0.00,Wunderground v.1.15,2013-10-14 16:42:00,
2013-10-14 09:48:00,46.3,31.4,30.29,NNW,332,0.0,0.0,56,0.00,,,0.00,Wunderground v.1.15,2013-10-14 16:48:00,
2013-10-14 09:54:00,46.6,31.3,30.29,WNW,295,0.0,0.0,55,0.00,,,0.00,Wunderground v.1.15,2013-10-14 16:54:00,
2013-10-14 10:00:00,46.9,30.6,30.29,NE,34,0.0,0.0,53,0.00,,,0.00,Wunderground v.1.15,2013-10-14 17:00:00,
2013-10-14 10:06:00,46.9,30.6,30.29,North,9,0.0,0.0,53,0.00,,,0.00,Wunderground v.1.15,2013-10-14 17:06:00,
2013-10-14 10:11:00,47.1,30.8,30.29,NW,308,0.0,0.0,53,0.00,,,0.00,Wunderground v.1.15,2013-10-14 17:11:00,
2013-10-14 10:17:00,47.4,31.1,30.29,NW,323,0.0,0.0,53,0.00,,,0.00,Wunderground v.1.15,2013-10-14 17:17:00,
2013-10-14 10:23:00,48.0,31.2,30.29,WNW,300,0.0,0.0,52,0.00,,,0.00,Wunderground v.1.15,2013-10-14 17:23:00,
2013-10-14 10:29:00,48.4,31.1,30.29,WNW,295,0.0,0.0,51,0.00,,,0.00,Wunderground v.1.15,2013-10-14 17:29:00,
2013-10-14 10:35:00,48.7,30.9,30.29,NW,311,0.0,0.0,50,0.00,,,0.00,Wunderground v.1.15,2013-10-14 17:35:00,
2013-10-14 10:41:00,49.2,30.8,30.28,ENE,73,0.0,0.0,49,0.00,,,0.00,Wunderground v.1.15,2013-10-14 17:41:00,
2013-10-14 10:47:00,49.1,30.7,30.28,NNE,14,0.0,0.0,49,0.00,,,0.00,Wunderground v.1.15,2013-10-14 17:47:00,
2013-10-14 10:53:00,49.2,30.8,30.28,NNE,17,0.0,0.0,49,0.00,,,0.00,Wunderground v.1.15,2013-10-14 17:53:00,
2013-10-14 10:58:00,49.3,30.9,30.28,North,6,0.0,0.0,49,0.00,,,0.00,Wunderground v.1.15,2013-10-14 17:58:00,
2013-10-14 11:04:00,49.4,31.0,30.27,South,189,0.0,0.0,49,0.00,,,0.00,Wunderground v.1.15,2013-10-14 18:04:00,
2013-10-14 11:09:00,50.4,31.4,30.27,NW,326,0.0,0.0,48,0.00,,,0.00,Wunderground v.1.15,2013-10-14 18:09:00,
2013-10-14 11:15:00,50.1,30.6,30.27,NNE,31,0.0,0.0,47,0.00,,,0.00,Wunderground v.1.15,2013-10-14 18:15:00,
2013-10-14 11:21:00,50.3,30.8,30.27,NW,311,0.0,0.0,47,0.00,,,0.00,Wunderground v.1.15,2013-10-14 18:21:00,
2013-10-14 11:27:00,51.2,31.6,30.26,North,6,0.0,0.0,47,0.00,,,0.00,Wunderground v.1.15,2013-10-14 18:27:00,
2013-10-14 11:33:00,51.3,31.2,30.27,NW,326,0.0,0.0,46,0.00,,,0.00,Wunderground v.1.15,2013-10-14 18:33:00,
2013-10-14 11:39:00,52.1,31.4,30.26,NNW,336,0.0,0.0,45,0.00,,,0.00,Wunderground v.1.15,2013-10-14 18:39:00,
2013-10-14 11:45:00,51.9,31.2,30.26,West,264,0.0,0.0,45,0.00,,,0.00,Wunderground v.1.15,2013-10-14 18:45:00,
2013-10-14 11:51:00,53.2,31.3,30.26,NW,319,0.0,0.0,43,0.00,,,0.00,Wunderground v.1.15,2013-10-14 18:51:00,
2013-10-14 11:57:00,52.9,31.0,30.26,West,266,0.0,0.0,43,0.00,,,0.00,Wunderground v.1.15,2013-10-14 18:57:00,
2013-10-14 12:02:00,53.2,30.7,30.26,NE,51,0.0,0.0,42,0.00,,,0.00,Wunderground v.1.15,2013-10-14 19:02:00,
2013-10-14 12:08:00,52.5,31.2,30.26,NNW,328,0.0,0.0,44,0.00,,,0.00,Wunderground v.1.15,2013-10-14 19:08:00,
2013-10-14 12:13:00,53.3,31.4,30.26,NNW,339,0.0,0.0,43,0.00,,,0.00,Wunderground v.1.15,2013-10-14 19:13:00,
2013-10-14 12:19:00,53.3,30.8,30.25,NW,321,0.0,0.0,42,0.00,,,0.00,Wunderground v.1.15,2013-10-14 19:19:00,
2013-10-14 12:25:00,52.9,31.0,30.25,West,270,0.0,0.0,43,0.00,,,0.00,Wunderground v.1.15,2013-10-14 19:25:00,
2013-10-14 12:31:00,54.2,31.6,30.25,NNW,345,0.0,0.0,42,0.00,,,0.00,Wunderground v.1.15,2013-10-14 19:31:00,
2013-10-14 12:37:00,53.9,31.3,30.25,North,355,0.0,0.0,42,0.00,,,0.00,Wunderground v.1.15,2013-10-14 19:37:00,
2013-10-14 12:43:00,53.5,31.0,30.24,North,11,0.0,0.0,42,0.00,,,0.00,Wunderground v.1.15,2013-10-14 19:43:00,
2013-10-14 12:49:00,53.6,31.6,30.24,SW,235,0.0,0.0,43,0.00,,,0.00,Wunderground v.1.15,2013-10-14 19:49:00,
2013-10-14 12:55:00,54.5,31.3,30.24,NNW,335,0.0,0.0,41,0.00,,,0.00,Wunderground v.1.15,2013-10-14 19:55:00,
2013-10-14 13:00:00,54.2,31.0,30.23,ENE,60,0.0,0.0,41,0.00,,,0.00,Wunderground v.1.15,2013-10-14 20:00:00,
2013-10-14 13:06:00,54.5,31.3,30.23,SW,236,0.0,0.0,41,0.00,,,0.00,Wunderground v.1.15,2013-10-14 20:06:00,
2013-10-14 13:12:00,54.8,31.5,30.23,NW,323,0.0,0.0,41,0.00,,,0.00,Wunderground v.1.15,2013-10-14 20:12:00,
2013-10-14 13:18:00,55.0,31.1,30.22,North,10,0.0,0.0,40,0.00,,,0.00,Wunderground v.1.15,2013-10-14 20:18:00,
2013-10-14 13:24:00,55.5,30.9,30.22,NE,39,0.0,0.0,39,0.00,,,0.00,Wunderground v.1.15,2013-10-14 20:24:00,
2013-10-14 13:30:00,54.9,31.0,30.22,WSW,243,0.0,0.0,40,0.00,,,0.00,Wunderground v.1.15,2013-10-14 20:30:00,
2013-10-14 13:36:00,55.1,30.6,30.22,NE,39,0.0,0.0,39,0.00,,,0.00,Wunderground v.1.15,2013-10-14 20:36:00,
2013-10-14 13:42:00,55.0,30.5,30.22,ENE,77,0.0,0.0,39,0.00,,,0.00,Wunderground v.1.15,2013-10-14 20:42:00,
2013-10-14 13:48:00,55.6,30.4,30.21,NNE,15,0.0,0.0,38,0.00,,,0.00,Wunderground v.1.15,2013-10-14 20:48:00,
2013-10-14 13:54:00,55.4,30.2,30.21,ESE,113,0.0,0.0,38,0.00,,,0.00,Wunderground v.1.15,2013-10-14 20:54:00,
2013-10-14 14:00:00,55.7,29.8,30.21,NW,305,0.0,0.0,37,0.00,,,0.00,Wunderground v.1.15,2013-10-14 21:00:00,
2013-10-14 14:06:00,55.8,29.9,30.21,NNW,342,0.0,0.0,37,0.00,,,0.00,Wunderground v.1.15,2013-10-14 21:06:00,
2013-10-14 14:12:00,56.1,30.2,30.20,NW,311,0.0,0.0,37,0.00,,,0.00,Wunderground v.1.15,2013-10-14 21:12:00,
2013-10-14 14:18:00,56.2,29.6,30.20,East,84,0.0,0.0,36,0.00,,,0.00,Wunderground v.1.15,2013-10-14 21:18:00,
2013-10-14 14:24:00,56.7,29.3,30.19,NE,36,0.0,0.0,35,0.00,,,0.00,Wunderground v.1.15,2013-10-14 21:24:00,
2013-10-14 14:30:00,56.8,28.7,30.19,NE,35,0.0,0.0,34,0.00,,,0.00,Wunderground v.1.15,2013-10-14 21:30:00,
2013-10-14 14:36:00,56.5,29.1,30.19,NW,316,0.0,0.0,35,0.00,,,0.00,Wunderground v.1.15,2013-10-14 21:36:00,
2013-10-14 14:42:00,56.7,29.3,30.19,NNE,20,0.0,0.0,35,0.00,,,0.00,Wunderground v.1.15,2013-10-14 21:42:00,
2013-10-14 14:47:00,56.6,28.5,30.19,NE,39,0.0,0.0,34,0.00,,,0.00,Wunderground v.1.15,2013-10-14 21:47:00,
2013-10-14 14:53:00,56.5,28.4,30.19,NNE,29,0.0,0.0,34,0.00,,,0.00,Wunderground v.1.15,2013-10-14 21:53:00,
2013-10-14 14:59:00,56.6,28.5,30.18,North,6,0.0,0.0,34,0.00,,,0.00,Wunderground v.1.15,2013-10-14 21:59:00,
2013-10-14 15:05:00,56.7,28.6,30.18,WNW,295,0.0,0.0,34,0.00,,,0.00,Wunderground v.1.15,2013-10-14 22:05:00,
2013-10-14 15:11:00,57.0,27.4,30.18,North,350,0.0,0.0,32,0.00,,,0.00,Wunderground v.1.15,2013-10-14 22:11:00,
2013-10-14 15:17:00,57.2,27.6,30.18,NNE,29,0.0,0.0,32,0.00,,,0.00,Wunderground v.1.15,2013-10-14 22:17:00,
2013-10-14 15:23:00,57.2,27.6,30.18,NNE,30,0.0,0.0,32,0.00,,,0.00,Wunderground v.1.15,2013-10-14 22:23:00,
2013-10-14 15:29:00,57.4,28.5,30.17,NNE,15,0.0,0.0,33,0.00,,,0.00,Wunderground v.1.15,2013-10-14 22:29:00,
2013-10-14 15:35:00,57.3,27.7,30.17,NNE,28,0.0,0.0,32,0.00,,,0.00,Wunderground v.1.15,2013-10-14 22:35:00,
2013-10-14 15:41:00,57.3,27.7,30.17,NNE,23,0.0,0.0,32,0.00,,,0.00,Wunderground v.1.15,2013-10-14 22:41:00,
2013-10-14 15:47:00,57.3,27.7,30.17,NW,318,0.0,0.0,32,0.00,,,0.00,Wunderground v.1.15,2013-10-14 22:47:00,
2013-10-14 15:53:00,57.6,27.9,30.17,NNW,346,0.0,0.0,32,0.00,,,0.00,Wunderground v.1.15,2013-10-14 22:53:00,
2013-10-14 15:59:00,57.7,28.0,30.17,NE,42,0.0,0.0,32,0.00,,,0.00,Wunderground v.1.15,2013-10-14 22:59:00,
2013-10-14 16:04:00,57.6,27.2,30.17,NE,44,0.0,0.0,31,0.00,,,0.00,Wunderground v.1.15,2013-10-14 23:04:00,
2013-10-14 16:10:00,57.8,28.1,30.16,NNW,330,0.0,0.0,32,0.00,,,0.00,Wunderground v.1.15,2013-10-14 23:10:00,
2013-10-14 16:16:00,57.8,27.3,30.16,NNW,338,0.0,0.0,31,0.00,,,0.00,Wunderground v.1.15,2013-10-14 23:16:00,
2013-10-14 16:22:00,57.8,28.1,30.16,NNE,27,0.0,0.0,32,0.00,,,0.00,Wunderground v.1.15,2013-10-14 23:22:00,
2013-10-14 16:28:00,57.8,28.1,30.16,NE,46,0.0,0.0,32,0.00,,,0.00,Wunderground v.1.15,2013-10-14 23:28:00,
2013-10-14 16:34:00,57.7,27.2,30.16,ENE,59,0.0,0.0,31,0.00,,,0.00,Wunderground v.1.15,2013-10-14 23:34:00,
2013-10-14 16:39:00,57.8,27.3,30.16,NW,318,0.0,0.0,31,0.00,,,0.00,Wunderground v.1.15,2013-10-14 23:39:00,
2013-10-14 16:45:00,57.9,27.4,30.16,ENE,66,0.0,0.0,31,0.00,,,0.00,Wunderground v.1.15,2013-10-14 23:45:00,
2013-10-14 16:51:00,57.8,27.3,30.16,NNE,30,0.0,0.0,31,0.00,,,0.00,Wunderground v.1.15,2013-10-14 23:51:00,
2013-10-14 16:57:00,58.2,26.9,30.16,NNE,24,0.0,0.0,30,0.00,,,0.00,Wunderground v.1.15,2013-10-14 23:57:00,
2013-10-14 17:03:00,58.0,26.7,30.15,North,1,0.0,0.0,30,0.00,,,0.00,Wunderground v.1.15,2013-10-15 00:03:00,
2013-10-14 17:09:00,57.9,26.6,30.15,NE,34,0.0,0.0,30,0.00,,,0.00,Wunderground v.1.15,2013-10-15 00:09:00,
2013-10-14 17:15:00,57.9,25.8,30.15,NNE,13,0.0,0.0,29,0.00,,,0.00,Wunderground v.1.15,2013-10-15 00:15:00,
2013-10-14 17:21:00,57.8,25.7,30.15,NNE,29,0.0,6.0,29,0.00,,,0.00,Wunderground v.1.15,2013-10-15 00:21:00,
2013-10-14 17:27:00,57.8,24.9,30.15,NE,42,0.0,6.0,28,0.00,,,0.00,Wunderground v.1.15,2013-10-15 00:27:00,
2013-10-14 17:33:00,57.7,24.8,30.15,NE,48,0.0,0.0,28,0.00,,,0.00,Wunderground v.1.15,2013-10-15 00:33:00,
2013-10-14 17:39:00,57.5,25.5,30.15,NNE,23,0.0,0.0,29,0.00,,,0.00,Wunderground v.1.15,2013-10-15 00:39:00,
2013-10-14 17:45:00,57.4,25.4,30.16,NNE,15,0.0,0.0,29,0.00,,,0.00,Wunderground v.1.15,2013-10-15 00:45:00,
2013-10-14 17:51:00,57.2,25.2,30.15,NE,44,0.0,0.0,29,0.00,,,0.00,Wunderground v.1.15,2013-10-15 00:51:00,
2013-10-14 17:57:00,56.8,24.8,30.16,NE,44,0.0,0.0,29,0.00,,,0.00,Wunderground v.1.15,2013-10-15 00:57:00,
2013-10-14 18:03:00,56.5,24.6,30.16,NE,38,0.0,0.0,29,0.00,,,0.00,Wunderground v.1.15,2013-10-15 01:03:00,
2013-10-14 18:09:00,56.0,24.2,30.16,NNE,32,0.0,0.0,29,0.00,,,0.00,Wunderground v.1.15,2013-10-15 01:09:00,
2013-10-14 18:15:00,55.3,23.5,30.16,NE,34,0.0,0.0,29,0.00,,,0.00,Wunderground v.1.15,2013-10-15 01:15:00,
2013-10-14 18:21:00,54.7,23.8,30.16,NE,42,0.0,0.0,30,0.00,,,0.00,Wunderground v.1.15,2013-10-15 01:21:00,
2013-10-14 18:27:00,54.1,24.1,30.16,NE,39,0.0,0.0,31,0.00,,,0.00,Wunderground v.1.15,2013-10-15 01:27:00,
2013-10-14 18:33:00,53.4,23.5,30.16,NE,45,0.0,0.0,31,0.00,,,0.00,Wunderground v.1.15,2013-10-15 01:33:00,
2013-10-14 18:39:00,53.0,23.9,30.16,NE,45,0.0,0.0,32,0.00,,,0.00,Wunderground v.1.15,2013-10-15 01:39:00,
2013-10-14 18:45:00,52.7,23.6,30.16,NE,45,0.0,0.0,32,0.00,,,0.00,Wunderground v.1.15,2013-10-15 01:45:00,